This is the latest recevied weather packets stored in our database for station/object XW7RMR. If no packets are shown the sender has not sent any weather packets the latest 10 day(s).
| Time | Temp. | Humidity | Pressure | Rain* | Wind** | Luminosity | Snow |
|---|---|---|---|---|---|---|---|
| 1778005726 | 15° C | 78% | 1015.7 hPa | 0 mm | - | 191 W/m² | - |
| 1778005422 | 15° C | 77% | 1015.6 hPa | 0 mm | - | 173 W/m² | - |
| 1778005120 | 15° C | 77% | 1015.6 hPa | 0 mm | - | 160 W/m² | - |
| 1778004816 | 14.44° C | 78% | 1015.5 hPa | 0 mm | - | 164 W/m² | - |
| 1778004513 | 14.44° C | 79% | 1015.6 hPa | 0 mm | - | 163 W/m² | - |
| 1778004210 | 15° C | 77% | 1015.6 hPa | 0 mm | - | 179 W/m² | - |
| 1778003906 | 15° C | 76% | 1015.4 hPa | 0 mm | - | 218 W/m² | - |
| 1778003603 | 15° C | 78% | 1015.4 hPa | 0 mm | - | 363 W/m² | - |
| 1778003299 | 15° C | 77% | 1015.5 hPa | 0 mm | - | 400 W/m² | - |
| 1778002997 | 14.44° C | 79% | 1015.5 hPa | 0 mm | - | 250 W/m² | - |
| 1778002692 | 14.44° C | 79% | 1015.5 hPa | 0 mm | - | 189 W/m² | - |
| 1778002389 | 14.44° C | 80% | 1015.4 hPa | 0 mm | - | 191 W/m² | - |
| 1778002086 | 13.89° C | 80% | 1015.5 hPa | 0 mm | - | 181 W/m² | - |
| 1778001783 | 15° C | 78% | 1015.5 hPa | 0 mm | - | 155 W/m² | - |
| 1778001478 | 15° C | 78% | 1015.5 hPa | 0 mm | - | 212 W/m² | - |
| 1778001175 | 14.44° C | 80% | 1015.4 hPa | 0 mm | - | 282 W/m² | - |
| 1778000872 | 13.89° C | 83% | 1015.3 hPa | 0 mm | - | 318 W/m² | - |
| 1778000569 | 13.89° C | 82% | 1015.3 hPa | 0 mm | - | 248 W/m² | - |
| 1777999960 | 13.89° C | 82% | 1015.3 hPa | 0 mm | - | 151 W/m² | - |
| 1777999656 | 14.44° C | 82% | 1015.1 hPa | 0 mm | - | 146 W/m² | - |
| 1777999353 | 13.89° C | 82% | 1015.3 hPa | 0 mm | - | 163 W/m² | - |
| 1777999051 | 13.89° C | 82% | 1015.2 hPa | 0 mm | - | 246 W/m² | - |
| 1777998750 | 13.89° C | 82% | 1015.1 hPa | 0 mm | - | 252 W/m² | - |
| 1777998447 | 13.89° C | 83% | 1015.2 hPa | 0 mm | - | 248 W/m² | - |
| 1777998144 | 13.33° C | 84% | 1015.1 hPa | 0 mm | - | 218 W/m² | - |
* Rain latest hour (hover to see other rain measurements)
** Current wind speed in m/s (hover to see current wind gust speed)